Time;durP1;ratioP1;P1;durP2;ratioP2;P2;SDS_P1;SDS_P2;PMS_P1;PMS_P2;Temp;Humidity;BMP_temperature;BMP_pressure;BME280_temperature;BME280_humidity;BME280_pressure;Samples;Min_cycle;Max_cycle;Signal;HPM_P1;HPM_P2
2022/05/11 00:00:37;;;;;;;2.20;1.98;;;;;;;15.36;57.03;101262.53;4993441;28;103835;-83
2022/05/11 00:03:07;;;;;;;2.78;2.45;;;;;;;15.36;57.06;101265.25;4993909;28;102051;-82
2022/05/11 00:05:35;;;;;;;2.85;2.08;;;;;;;15.37;56.81;101258.69;4995582;28;102369;-82
2022/05/11 00:08:03;;;;;;;4.10;2.30;;;;;;;15.37;56.71;101266.91;4995002;28;102467;-82
2022/05/11 00:10:31;;;;;;;2.83;1.88;;;;;;;15.37;57.07;101266.91;4980741;28;103810;-82
2022/05/11 00:12:58;;;;;;;3.22;2.25;;;;;;;15.36;57.13;101257.03;4975576;28;102090;-82
2022/05/11 00:15:25;;;;;;;3.65;2.25;;;;;;;15.36;57.01;101262.53;4975234;28;102373;-82
2022/05/11 00:17:52;;;;;;;2.35;2.15;;;;;;;15.35;56.78;101261.69;4976335;28;102277;-82
2022/05/11 00:20:22;;;;;;;2.85;2.45;;;;;;;15.36;57.03;101262.53;4992890;28;103814;-82
2022/05/11 00:22:52;;;;;;;3.75;2.30;;;;;;;15.35;56.70;101264.44;4995853;28;102611;-82
2022/05/11 00:25:19;;;;;;;2.40;2.10;;;;;;;15.34;56.78;101257.34;4995753;28;101926;-83
2022/05/11 00:27:47;;;;;;;3.13;2.63;;;;;;;15.36;57.01;101268.00;4996437;28;102588;-82
2022/05/11 00:30:13;;;;;;;4.22;2.25;;;;;;;15.35;57.04;101256.22;4995081;28;103832;-83
2022/05/11 00:32:40;;;;;;;4.10;2.45;;;;;;;15.35;57.17;101255.41;4988969;28;102321;-83
2022/05/11 00:35:08;;;;;;;3.80;2.40;;;;;;;15.35;57.18;101260.91;4988061;28;102266;-82
2022/05/11 00:37:36;;;;;;;2.35;2.15;;;;;;;15.35;57.18;101260.91;4995000;28;102891;-82
2022/05/11 00:40:03;;;;;;;3.92;2.33;;;;;;;15.36;57.14;101262.53;4993440;28;102987;-83
2022/05/11 00:42:31;;;;;;;3.83;2.05;;;;;;;15.35;57.02;101256.22;4996860;28;102352;-83
2022/05/11 00:44:58;;;;;;;3.07;2.30;;;;;;;15.35;56.92;101256.22;4998817;28;102563;-83
2022/05/11 00:47:30;;;;;;;3.60;2.20;;;;;;;15.34;57.07;101253.78;4996185;28;102226;-83
2022/05/11 00:50:03;;;;;;;3.80;2.70;;;;;;;15.36;57.23;101257.03;4994214;28;103589;-83
2022/05/11 00:52:37;;;;;;;3.15;2.10;;;;;;;15.35;57.01;101252.66;4995218;28;102443;-83
2022/05/11 00:55:08;;;;;;;3.55;2.20;;;;;;;15.35;57.27;101249.94;4993961;28;101978;-83
2022/05/11 00:57:44;;;;;;;2.85;2.15;;;;;;;15.34;56.88;101237.31;4993323;28;104243;-83
2022/05/11 01:00:12;;;;;;;2.40;2.15;;;;;;;15.35;56.92;101247.19;4992646;28;104094;-83
2022/05/11 01:02:40;;;;;;;2.83;2.33;;;;;;;15.35;57.15;101244.44;4994199;28;102006;-83
2022/05/11 01:05:08;;;;;;;2.90;2.33;;;;;;;15.35;57.32;101249.94;4994294;28;102292;-83
2022/05/11 01:07:36;;;;;;;2.58;2.28;;;;;;;15.35;57.26;101245.25;4994881;28;102225;-83
2022/05/11 01:10:03;;;;;;;2.55;2.22;;;;;;;15.34;57.11;101251.03;4980878;28;103975;-83
2022/05/11 01:12:43;;;;;;;3.47;2.40;;;;;;;15.34;57.36;101245.56;4974485;28;102362;-83
2022/05/11 01:15:11;;;;;;;2.30;2.10;;;;;;;15.35;57.41;101244.44;4974486;28;101796;-83
2022/05/11 01:17:39;;;;;;;2.85;2.45;;;;;;;15.35;57.15;101255.41;4992847;28;102065;-83
2022/05/11 01:20:10;;;;;;;3.25;2.38;;;;;;;15.35;57.12;101249.94;4976278;28;104084;-82
2022/05/11 01:22:42;;;;;;;2.70;2.28;;;;;;;15.35;57.29;101255.41;4974427;28;102005;-82
2022/05/11 01:25:11;;;;;;;2.70;2.20;;;;;;;15.34;57.32;101246.38;4973797;28;102198;-83
2022/05/11 01:27:40;;;;;;;3.85;2.08;;;;;;;15.35;57.49;101252.66;4983382;28;102115;-83
2022/05/11 01:30:10;;;;;;;3.53;2.50;;;;;;;15.35;57.10;101255.41;4973781;28;104083;-82
2022/05/11 01:32:38;;;;;;;4.38;2.33;;;;;;;15.35;57.46;101249.94;4976492;28;102245;-83
2022/05/11 01:35:29;;;;;;;3.80;2.15;;;;;;;15.35;57.29;101263.63;4994033;28;101944;-82
2022/05/11 01:38:07;;;;;;;3.45;2.08;;;;;;;15.35;57.57;101260.91;4974477;28;102430;-83
2022/05/11 01:40:39;;;;;;;3.55;2.22;;;;;;;15.33;57.19;101252.97;4988727;28;104345;-83
2022/05/11 01:43:06;;;;;;;2.67;2.47;;;;;;;15.34;57.09;101253.78;4993855;28;102544;-83
2022/05/11 01:45:33;;;;;;;3.17;2.17;;;;;;;15.34;57.26;101249.09;4993265;28;102089;-83
2022/05/11 01:47:59;;;;;;;4.28;2.33;;;;;;;15.34;57.21;101237.31;4989410;28;102596;-83
2022/05/11 01:50:26;;;;;;;2.72;2.35;;;;;;;15.35;57.50;101236.22;4992586;28;104236;-82
2022/05/11 01:52:52;;;;;;;3.03;2.33;;;;;;;15.34;57.25;101238.13;4992752;28;102062;-83
2022/05/11 01:55:19;;;;;;;2.30;2.00;;;;;;;15.34;57.22;101248.28;4993602;28;101916;-83
2022/05/11 01:57:50;;;;;;;3.30;1.88;;;;;;;15.34;57.66;101240.06;4994271;28;102173;-84
2022/05/11 02:00:17;;;;;;;3.13;2.20;;;;;;;15.34;57.25;101237.31;4992966;28;103909;-84
2022/05/11 02:02:44;;;;;;;4.03;2.45;;;;;;;15.34;57.36;101242.81;4994235;28;102474;-83
2022/05/11 02:07:56;;;;;;;4.05;2.10;;;;;;;15.33;57.40;101232.97;4993661;28;102376;-83
2022/05/11 02:10:27;;;;;;;3.75;2.50;;;;;;;15.34;57.34;101238.13;4991420;28;104266;-83
2022/05/11 02:12:58;;;;;;;3.20;2.38;;;;;;;15.34;57.49;101243.63;4993049;28;102421;-83
2022/05/11 02:15:26;;;;;;;2.55;2.10;;;;;;;15.34;57.66;101237.31;4993066;28;102380;-83
2022/05/11 02:17:53;;;;;;;3.80;2.65;;;;;;;15.34;57.51;101238.13;4982049;28;102653;-84
2022/05/11 02:20:21;;;;;;;3.88;2.28;;;;;;;15.34;57.28;101234.59;4973120;28;103912;-84
2022/05/11 02:22:49;;;;;;;4.00;2.30;;;;;;;15.34;57.44;101242.81;4974137;28;102029;-83
2022/05/11 02:25:17;;;;;;;3.20;2.50;;;;;;;15.33;57.39;101232.97;4973193;28;101932;-83
2022/05/11 02:27:44;;;;;;;3.63;2.30;;;;;;;15.34;57.85;101237.31;4986088;28;102295;-83
2022/05/11 02:30:16;;;;;;;4.47;2.50;;;;;;;15.34;57.31;101231.84;4993451;28;104205;-84
2022/05/11 02:32:42;;;;;;;3.72;2.75;;;;;;;15.33;57.70;101239.25;4992872;28;102312;-84
2022/05/11 02:35:12;;;;;;;3.85;2.42;;;;;;;15.34;57.41;101237.31;4992927;28;101873;-83
2022/05/11 02:37:45;;;;;;;3.28;2.45;;;;;;;15.33;57.36;101247.47;4993184;28;102293;-84
2022/05/11 02:40:14;;;;;;;4.15;2.60;;;;;;;15.33;57.36;101236.50;4993168;28;103796;-83
2022/05/11 02:42:40;;;;;;;4.13;2.97;;;;;;;15.34;57.69;101229.09;4993463;28;101960;-83
2022/05/11 02:45:08;;;;;;;4.95;2.60;;;;;;;15.34;57.48;101237.31;4992158;28;102246;-83
2022/05/11 02:47:48;;;;;;;4.45;2.60;;;;;;;15.33;57.62;101220.06;4977215;28;101952;-83
2022/05/11 02:50:17;;;;;;;5.78;3.00;;;;;;;15.33;57.77;101231.03;4973386;28;103820;-84
2022/05/11 02:52:44;;;;;;;4.68;3.00;;;;;;;15.33;57.58;101235.69;4980118;28;102374;-84
2022/05/11 02:55:11;;;;;;;6.07;3.60;;;;;;;15.34;57.51;101226.34;4994382;28;101990;-82
2022/05/11 02:57:38;;;;;;;3.75;2.78;;;;;;;15.33;57.81;101230.22;4997577;28;102199;-82
2022/05/11 03:00:07;;;;;;;3.40;2.85;;;;;;;15.34;57.84;101226.34;4988844;28;104037;-83
2022/05/11 03:02:33;;;;;;;5.47;3.42;;;;;;;15.34;57.59;101223.63;4995210;28;102281;-84
2022/05/11 03:05:02;;;;;;;5.85;3.15;;;;;;;15.33;57.48;101224.72;4995003;28;103177;-82
2022/05/11 03:07:32;;;;;;;5.43;3.47;;;;;;;15.34;57.49;101220.88;4977660;28;102305;-82
2022/05/11 03:09:59;;;;;;;5.18;3.00;;;;;;;15.33;57.55;101224.72;4991403;28;103892;-83
2022/05/11 03:12:25;;;;;;;6.00;3.50;;;;;;;15.33;57.92;101230.22;4982147;28;101928;-84
2022/05/11 03:14:57;;;;;;;6.15;3.63;;;;;;;15.34;57.57;101231.84;4996480;28;102603;-83
2022/05/11 03:17:24;;;;;;;7.30;3.60;;;;;;;15.34;57.65;101240.06;4997861;28;102184;-83
2022/05/11 03:19:53;;;;;;;5.93;3.78;;;;;;;15.33;57.64;101239.25;4996795;28;104134;-84
2022/05/11 03:22:23;;;;;;;5.90;3.28;;;;;;;15.33;57.43;101236.50;4996089;28;102548;-83
2022/05/11 03:24:50;;;;;;;4.97;3.20;;;;;;;15.33;57.84;101244.75;4996300;28;102090;-82
2022/05/11 03:27:17;;;;;;;6.38;3.38;;;;;;;15.35;57.63;101238.94;4997950;28;102376;-84
2022/05/11 03:29:47;;;;;;;5.97;3.00;;;;;;;15.34;57.67;101240.06;4985928;28;104019;-83
2022/05/11 03:34:58;;;;;;;5.80;3.17;;;;;;;15.35;57.68;101249.94;4977181;28;102086;-83
2022/05/11 03:37:27;;;;;;;4.13;3.10;;;;;;;15.35;57.73;101260.91;4977261;28;102476;-83
2022/05/11 03:39:54;;;;;;;4.13;2.72;;;;;;;15.34;57.77;101265.56;4983780;28;103263;-84
2022/05/11 03:42:22;;;;;;;4.72;2.50;;;;;;;15.35;57.53;101272.69;4997078;28;102015;-83
2022/05/11 03:44:49;;;;;;;3.13;2.60;;;;;;;15.36;57.58;101268.00;4995676;28;102046;-84
2022/05/11 03:47:17;;;;;;;4.10;3.05;;;;;;;15.37;57.82;101275.16;4996471;28;102192;-83
2022/05/11 03:49:43;;;;;;;4.35;2.88;;;;;;;15.37;57.54;101277.88;4987945;28;103935;-83
2022/05/11 03:52:12;;;;;;;3.97;2.75;;;;;;;15.37;57.97;101270.47;4990716;28;102016;-83
2022/05/11 03:54:41;;;;;;;3.78;2.50;;;;;;;15.38;57.96;101276.78;4997047;28;102171;-83
2022/05/11 03:57:07;;;;;;;4.65;2.80;;;;;;;15.38;57.46;101272.09;4997234;28;102016;-83
2022/05/11 03:59:34;;;;;;;3.50;2.60;;;;;;;15.39;57.71;101268.25;4997147;28;103927;-84
2022/05/11 04:02:00;;;;;;;3.70;2.33;;;;;;;15.39;57.99;101267.44;4997537;28;103713;-83
2022/05/11 04:04:27;;;;;;;4.57;3.00;;;;;;;15.40;58.00;101274.56;4997916;28;102583;-84
2022/05/11 04:06:55;;;;;;;3.50;2.60;;;;;;;15.41;57.71;101284.44;4997379;28;102080;-84
2022/05/11 04:09:21;;;;;;;2.97;2.50;;;;;;;15.41;57.81;101281.69;4997113;28;103787;-85
2022/05/11 04:11:49;;;;;;;4.63;2.65;;;;;;;15.41;57.74;101281.69;4993494;28;102093;-84
2022/05/11 04:14:16;;;;;;;2.95;2.50;;;;;;;15.42;57.73;101283.31;4995336;28;103302;-83
2022/05/11 04:16:43;;;;;;;3.85;2.58;;;;;;;15.43;57.81;101290.41;4998898;28;102128;-83
2022/05/11 04:19:10;;;;;;;2.97;2.35;;;;;;;15.43;57.81;101286.88;4997616;28;104301;-83
2022/05/11 04:21:36;;;;;;;3.78;2.60;;;;;;;15.44;58.03;101286.59;4997180;28;102290;-82
2022/05/11 04:24:04;;;;;;;3.67;2.63;;;;;;;15.43;57.73;101295.91;4995923;28;102741;-83
2022/05/11 04:26:32;;;;;;;4.60;3.00;;;;;;;15.44;57.83;101288.53;5000153;28;102533;-83
2022/05/11 04:29:00;;;;;;;4.38;2.60;;;;;;;15.44;57.84;101300.31;4998961;28;103092;-83
2022/05/11 04:31:26;;;;;;;3.38;2.38;;;;;;;15.45;58.08;101301.13;4999365;28;102513;-83
2022/05/11 04:33:52;;;;;;;3.17;2.38;;;;;;;15.44;58.12;101292.06;4998547;28;102064;-83
2022/05/11 04:36:20;;;;;;;4.97;3.33;;;;;;;15.45;57.99;101293.72;5000110;28;102175;-83
2022/05/11 04:38:47;;;;;;;4.55;2.70;;;;;;;15.46;58.04;101303.56;4999143;28;103952;-83
2022/05/11 04:41:14;;;;;;;3.40;2.90;;;;;;;15.45;57.70;101301.94;4999678;28;102366;-83
2022/05/11 04:43:41;;;;;;;4.57;2.63;;;;;;;15.46;57.96;101302.75;4986757;28;102355;-83
2022/05/11 04:46:09;;;;;;;3.97;2.60;;;;;;;15.47;58.03;101307.13;4980730;28;102039;-83
2022/05/11 04:48:36;;;;;;;3.63;2.50;;;;;;;15.47;58.21;101296.16;4978424;28;104366;-83
2022/05/11 04:51:04;;;;;;;3.08;2.67;;;;;;;15.48;57.88;101295.06;4991731;28;102228;-83
2022/05/11 04:53:31;;;;;;;5.43;2.92;;;;;;;15.47;58.10;101291.50;4995055;28;102112;-84
2022/05/11 04:55:58;;;;;;;3.70;2.92;;;;;;;15.48;58.11;101301.34;4979852;28;102198;-84
2022/05/11 04:58:24;;;;;;;4.32;3.00;;;;;;;15.49;57.87;101300.25;4979190;28;104019;-84
2022/05/11 05:00:55;;;;;;;4.97;2.63;;;;;;;15.49;57.95;101300.25;4993754;28;102253;-83
2022/05/11 05:03:23;;;;;;;3.60;2.70;;;;;;;15.50;58.18;101292.81;4983940;28;102690;-83
2022/05/11 05:05:50;;;;;;;3.03;2.33;;;;;;;15.50;57.75;101290.91;4995965;28;102167;-83
2022/05/11 05:08:17;;;;;;;2.97;2.42;;;;;;;15.51;58.16;101291.75;4994114;28;103911;-84
2022/05/11 05:10:46;;;;;;;3.63;2.30;;;;;;;15.52;58.10;101298.84;4993152;28;102850;-83
2022/05/11 05:13:12;;;;;;;3.90;2.65;;;;;;;15.52;57.93;101296.09;4984183;28;102056;-84
2022/05/11 05:15:42;;;;;;;3.30;2.50;;;;;;;15.53;57.85;101301.28;4994049;28;102431;-84
2022/05/11 05:18:08;;;;;;;5.72;2.90;;;;;;;15.54;57.91;101302.09;4984768;28;103890;-84
2022/05/11 05:20:38;;;;;;;3.45;2.17;;;;;;;15.55;57.92;101298.28;4994578;28;102250;-84
2022/05/11 05:23:06;;;;;;;2.20;2.00;;;;;;;15.56;57.72;101297.16;4994330;28;102175;-83
2022/05/11 05:25:32;;;;;;;3.65;2.55;;;;;;;15.56;57.98;101295.22;4996064;28;102228;-83
2022/05/11 05:33:34;;;;;;;3.70;1.90;;;;;;;15.60;57.93;101298.22;4993973;28;102550;-81
2022/05/11 05:36:03;;;;;;;5.47;2.20;;;;;;;15.60;57.57;101290.78;4992360;28;102407;-83
2022/05/11 05:38:30;;;;;;;3.55;2.30;;;;;;;15.61;57.47;101292.44;4993888;28;103876;-83
2022/05/11 05:40:56;;;;;;;3.60;2.38;;;;;;;15.62;57.54;101301.50;4990133;28;102719;-82
2022/05/11 05:43:23;;;;;;;2.85;2.58;;;;;;;15.63;57.66;101301.19;4993369;28;102102;-83
2022/05/11 05:45:51;;;;;;;2.65;2.25;;;;;;;15.65;57.56;101297.31;4991756;28;102637;-83
2022/05/11 05:48:19;;;;;;;3.17;2.30;;;;;;;15.65;57.62;101298.16;4992348;28;103841;-85
2022/05/11 05:50:46;;;;;;;3.70;2.20;;;;;;;15.66;57.72;101299.00;4993325;28;102034;-85
2022/05/11 05:53:19;;;;;;;5.43;2.47;;;;;;;15.68;57.87;101299.53;4993765;28;102082;-85
2022/05/11 05:55:47;;;;;;;4.13;2.38;;;;;;;15.68;57.87;101297.59;4994306;28;102475;-85
2022/05/11 05:58:14;;;;;;;3.53;2.50;;;;;;;15.69;57.49;101304.75;4992858;28;103944;-84
2022/05/11 06:00:41;;;;;;;4.75;2.45;;;;;;;15.70;57.55;101311.84;4993233;28;101947;-85
2022/05/11 06:03:08;;;;;;;2.97;2.10;;;;;;;15.71;57.85;101301.69;4988193;28;102103;-85
2022/05/11 06:05:34;;;;;;;3.53;2.58;;;;;;;15.72;57.89;101314.28;4990643;28;101960;-85
2022/05/11 06:08:01;;;;;;;4.78;2.30;;;;;;;15.73;57.54;101310.47;4991409;28;103904;-84
2022/05/11 06:10:31;;;;;;;3.65;2.47;;;;;;;15.72;57.39;101308.81;4992707;28;102062;-84
2022/05/11 06:12:57;;;;;;;2.40;2.20;;;;;;;15.74;57.71;101312.09;4991762;28;102070;-85
2022/05/11 06:15:25;;;;;;;2.38;2.15;;;;;;;15.74;57.66;101312.09;4993677;28;102755;-84
2022/05/11 06:17:52;;;;;;;2.60;2.22;;;;;;;15.75;57.48;101319.22;4989111;28;103795;-84
2022/05/11 06:20:18;;;;;;;2.50;2.08;;;;;;;15.75;57.43;101324.69;4990515;28;103612;-86
2022/05/11 06:22:45;;;;;;;2.75;2.28;;;;;;;15.76;57.46;101323.56;4987190;28;103846;-85
2022/05/11 06:25:11;;;;;;;2.63;2.10;;;;;;;15.76;57.58;101323.56;4982445;28;102308;-84
2022/05/11 06:27:39;;;;;;;4.28;2.03;;;;;;;15.76;57.33;101327.16;4987436;28;105003;-83
2022/05/11 06:30:07;;;;;;;3.17;2.38;;;;;;;15.78;57.37;101330.41;4983332;28;102043;-83
2022/05/11 06:32:34;;;;;;;3.45;2.63;;;;;;;15.78;57.74;101330.41;4989998;28;102773;-83
2022/05/11 06:35:00;;;;;;;2.50;2.10;;;;;;;15.79;57.44;101331.22;4992805;28;102696;-86
2022/05/11 06:37:27;;;;;;;2.95;2.30;;;;;;;15.80;57.70;101321.91;4989461;28;103703;-84
2022/05/11 06:39:53;;;;;;;3.53;2.17;;;;;;;15.80;57.61;101319.16;4991604;28;102409;-84
2022/05/11 06:42:21;;;;;;;2.95;2.55;;;;;;;15.81;57.80;101323.53;4987577;28;102259;-84
2022/05/11 06:44:49;;;;;;;2.85;2.13;;;;;;;15.81;57.77;101324.34;4990563;28;102537;-85
2022/05/11 06:47:16;;;;;;;2.20;1.90;;;;;;;15.82;57.45;101330.66;4986490;28;104014;-84
2022/05/11 06:49:42;;;;;;;2.92;2.08;;;;;;;15.83;57.49;101333.13;4983994;28;102480;-84
2022/05/11 06:52:10;;;;;;;2.20;2.00;;;;;;;15.83;57.53;101329.53;4990770;28;102302;-84
2022/05/11 07:00:09;;;;;;;2.42;2.08;;;;;;;15.85;57.31;101324.59;4977726;28;102841;-85
2022/05/11 07:02:37;;;;;;;2.60;2.00;;;;;;;15.85;57.63;101330.06;4971670;28;102260;-85
2022/05/11 07:05:08;;;;;;;2.85;2.13;;;;;;;15.87;57.71;101330.63;4992447;28;102126;-85
2022/05/11 07:07:34;;;;;;;3.15;2.05;;;;;;;15.88;57.21;101334.16;4992480;28;103979;-85
2022/05/11 07:10:01;;;;;;;3.45;2.22;;;;;;;15.89;57.54;101327.56;4992371;28;101891;-86
2022/05/11 07:12:32;;;;;;;3.17;1.98;;;;;;;15.89;57.31;101324.81;4979559;28;103345;-85
2022/05/11 07:15:00;;;;;;;2.45;1.63;;;;;;;15.89;57.37;101325.63;4990396;28;102617;-85
2022/05/11 07:17:33;;;;;;;2.70;2.00;;;;;;;15.90;57.55;101327.25;4988599;28;103926;-84
2022/05/11 07:20:02;;;;;;;1.90;1.73;;;;;;;15.90;57.20;101330.00;4981088;28;102105;-85
2022/05/11 07:22:36;;;;;;;3.55;2.10;;;;;;;15.92;57.62;101319.56;4977424;28;102098;-85
2022/05/11 07:25:03;;;;;;;3.05;2.20;;;;;;;15.93;57.66;101325.88;4988286;28;102553;-84
2022/05/11 07:27:29;;;;;;;2.58;2.08;;;;;;;15.93;57.48;101326.69;4985071;28;103959;-84
2022/05/11 07:29:56;;;;;;;2.15;1.80;;;;;;;15.93;57.44;101321.19;4993677;28;102031;-85
2022/05/11 07:32:23;;;;;;;2.33;2.13;;;;;;;15.94;57.29;101328.34;4989017;28;102437;-85
2022/05/11 07:34:51;;;;;;;2.20;1.92;;;;;;;15.95;57.57;101321.72;4990787;28;102085;-85
2022/05/11 07:37:17;;;;;;;1.90;1.70;;;;;;;15.95;57.26;101321.72;4990565;28;103838;-86
2022/05/11 07:39:44;;;;;;;2.50;2.00;;;;;;;15.96;57.34;101326.09;4986732;28;102174;-85
2022/05/11 07:42:12;;;;;;;3.13;2.00;;;;;;;15.96;57.03;101331.59;4992442;28;102790;-84
2022/05/11 07:44:39;;;;;;;4.00;1.90;;;;;;;15.97;57.42;101322.22;4977239;28;102526;-85
2022/05/11 07:47:10;;;;;;;2.47;1.77;;;;;;;15.98;57.25;101326.63;4981551;28;103593;-85
2022/05/11 07:49:37;;;;;;;2.75;1.73;;;;;;;15.99;56.96;101319.22;4990097;28;102275;-85
2022/05/11 07:52:06;;;;;;;4.45;1.90;;;;;;;15.97;57.09;101322.22;4987705;28;102903;-84
2022/05/11 07:54:33;;;;;;;2.13;1.90;;;;;;;16.00;57.33;101316.16;4984578;28;102493;-84
2022/05/11 08:00:02;;;;;;;3.15;1.98;;;;;;;16.01;57.12;101316.97;4995307;28;102084;-85
2022/05/11 08:02:31;;;;;;;2.00;1.80;;;;;;;16.01;57.41;101317.81;4990582;28;102066;-85
2022/05/11 08:05:19;;;;;;;2.70;1.90;;;;;;;16.03;57.35;101317.50;4986587;28;102301;-84
2022/05/11 08:07:52;;;;;;;24.08;2.60;;;;;;;16.03;56.92;101315.59;4990978;28;104035;-85
2022/05/11 08:10:20;;;;;;;10.10;2.47;;;;;;;16.04;56.89;101317.22;4987997;28;102496;-84
2022/05/11 08:12:52;;;;;;;7.20;2.17;;;;;;;16.03;57.16;101312.84;4975180;28;102386;-84
2022/05/11 08:15:27;;;;;;;5.28;2.10;;;;;;;16.05;57.26;101313.38;4977350;28;102125;-85
2022/05/11 08:17:55;;;;;;;3.83;1.80;;;;;;;16.06;57.42;101312.25;4975824;28;103109;-84
2022/05/11 08:20:29;;;;;;;8.38;2.08;;;;;;;16.05;57.16;101310.63;4975950;28;102086;-84
2022/05/11 08:23:00;;;;;;;5.30;2.35;;;;;;;16.06;57.25;101315.00;4975367;28;101929;-85
2022/05/11 08:25:29;;;;;;;4.80;1.80;;;;;;;16.07;57.29;101311.13;4976751;28;102292;-85
2022/05/11 08:27:57;;;;;;;2.13;1.90;;;;;;;16.07;56.89;101310.31;4976010;28;104040;-84
2022/05/11 08:33:26;;;;;;;5.68;1.75;;;;;;;16.08;57.27;101307.28;4975933;28;102455;-85
2022/05/11 08:35:57;;;;;;;3.65;1.80;;;;;;;16.09;57.06;101313.59;4995347;28;102531;-84
2022/05/11 08:38:30;;;;;;;2.72;2.05;;;;;;;16.09;56.87;101314.41;4995374;28;103897;-84
2022/05/11 08:41:04;;;;;;;6.03;2.30;;;;;;;16.10;57.01;101307.81;4996049;28;102498;-84
2022/05/11 08:43:32;;;;;;;3.25;1.70;;;;;;;16.12;57.17;101312.19;4996112;28;102457;-85
2022/05/11 08:46:08;;;;;;;5.63;2.33;;;;;;;16.10;57.26;101305.06;4996769;28;102500;-85
2022/05/11 08:48:45;;;;;;;4.43;1.67;;;;;;;16.10;57.21;101296.81;4996116;28;104086;-85
2022/05/11 08:51:21;;;;;;;2.75;1.92;;;;;;;16.11;57.05;101305.88;5015936;28;102692;-85
2022/05/11 08:53:52;;;;;;;5.35;2.10;;;;;;;16.09;57.11;101299.88;5015894;27;102316;-85
2022/05/11 08:56:23;;;;;;;3.72;1.85;;;;;;;16.12;56.86;101302.03;5001562;28;102052;-84
2022/05/11 08:58:54;;;;;;;2.85;2.10;;;;;;;16.12;56.69;101301.19;4995990;28;103882;-85
2022/05/11 09:01:23;;;;;;;1.90;1.70;;;;;;;16.12;57.16;101290.22;4997281;28;101952;-85
2022/05/11 09:03:53;;;;;;;2.92;1.75;;;;;;;16.12;57.33;101291.06;4996537;28;101938;-85
2022/05/11 09:06:24;;;;;;;4.90;1.77;;;;;;;16.13;56.93;101286.38;4978940;28;102152;-85
2022/05/11 09:08:54;;;;;;;3.15;1.67;;;;;;;16.13;56.86;101291.88;4975745;28;103087;-85
2022/05/11 09:11:26;;;;;;;2.35;1.60;;;;;;;16.13;57.15;101289.13;4977798;28;101980;-85
2022/05/11 09:13:56;;;;;;;2.53;1.90;;;;;;;16.14;57.16;101293.50;4977712;28;102296;-85
2022/05/11 09:16:26;;;;;;;2.58;1.58;;;;;;;16.13;57.08;101287.19;4996280;28;102167;-84
2022/05/11 09:18:54;;;;;;;3.05;2.00;;;;;;;16.14;57.21;101271.53;4995581;28;104747;-86
2022/05/11 09:21:29;;;;;;;2.15;1.85;;;;;;;16.14;56.87;101282.50;4994135;28;102054;-83
2022/05/11 09:24:10;;;;;;;2.58;1.73;;;;;;;16.14;57.08;101291.56;4993203;28;102292;-83
2022/05/11 09:26:40;;;;;;;3.08;1.58;;;;;;;16.13;57.12;101286.38;4985038;28;102295;-84
2022/05/11 09:29:19;;;;;;;2.28;1.50;;;;;;;16.13;56.74;101289.13;4983070;28;102695;-83
2022/05/11 09:31:47;;;;;;;2.28;2.08;;;;;;;16.13;56.95;101280.88;4991760;28;102075;-83
2022/05/11 09:34:22;;;;;;;2.95;1.90;;;;;;;16.12;56.67;101274.56;4996806;28;102297;-83
2022/05/11 09:36:55;;;;;;;4.82;2.05;;;;;;;16.12;56.91;101274.56;4980069;28;102085;-83
2022/05/11 09:39:24;;;;;;;2.60;1.88;;;;;;;16.12;56.84;101273.72;4991162;28;103818;-83
2022/05/11 09:41:52;;;;;;;3.40;2.28;;;;;;;16.13;56.84;101270.72;4994795;28;101953;-84
2022/05/11 09:44:21;;;;;;;2.25;1.90;;;;;;;16.12;56.90;101276.47;4992349;28;101990;-84
2022/05/11 09:46:50;;;;;;;3.58;1.65;;;;;;;16.12;56.97;101273.72;4998497;28;102412;-83
2022/05/11 09:49:27;;;;;;;3.25;1.88;;;;;;;16.10;56.92;101272.09;4993083;28;104424;-83
2022/05/11 09:51:57;;;;;;;3.60;2.00;;;;;;;16.10;56.49;101277.59;4992811;28;102295;-84
2022/05/11 09:54:40;;;;;;;1.73;1.40;;;;;;;16.11;57.00;101267.44;4989005;28;102054;-83
2022/05/11 09:57:20;;;;;;;2.63;1.60;;;;;;;16.09;56.90;101259.50;4991002;28;102652;-83
2022/05/11 09:59:52;;;;;;;1.73;1.60;;;;;;;16.10;56.60;101261.13;4992745;28;103862;-83
2022/05/11 10:02:24;;;;;;;2.58;1.90;;;;;;;16.10;56.59;101250.13;4995098;28;102019;-83
2022/05/11 10:04:56;;;;;;;2.30;1.80;;;;;;;16.12;56.80;101257.25;4992523;28;102580;-83
2022/05/11 10:07:25;;;;;;;2.08;1.65;;;;;;;16.09;56.83;101254.00;4992959;28;102093;-83
2022/05/11 10:10:00;;;;;;;1.90;1.67;;;;;;;16.09;56.88;101248.50;4993272;28;103945;-84
2022/05/11 10:12:32;;;;;;;2.95;2.00;;;;;;;16.09;56.57;101253.19;4993721;28;102314;-83
2022/05/11 10:23:30;;;;;;;2.35;1.70;;;;;;;16.06;56.74;101249.09;4976930;28;102306;-84
2022/05/11 10:26:04;;;;;;;2.63;1.80;;;;;;;16.06;56.38;101245.53;4992429;28;102511;-84
2022/05/11 10:28:41;;;;;;;2.05;1.85;;;;;;;16.06;56.44;101254.59;4994481;28;102330;-83
2022/05/11 10:31:23;;;;;;;3.10;1.98;;;;;;;16.06;56.71;101253.78;4993013;28;103893;-83
2022/05/11 10:34:00;;;;;;;3.08;1.92;;;;;;;16.05;56.83;101241.19;4987951;28;102069;-83
2022/05/11 10:36:38;;;;;;;2.28;1.80;;;;;;;16.05;56.37;101246.66;4988915;28;102225;-83
2022/05/11 10:39:30;;;;;;;2.80;1.70;;;;;;;16.05;56.28;101252.97;4991348;28;102478;-84
2022/05/11 10:42:09;;;;;;;1.85;1.70;;;;;;;16.04;56.74;101245.81;4985986;28;104139;-84
2022/05/11 10:44:56;;;;;;;2.25;1.58;;;;;;;16.04;56.45;101256.81;4990411;28;103871;-84
2022/05/11 10:47:42;;;;;;;2.70;1.75;;;;;;;16.03;56.64;101246.94;4984112;28;102125;-83
2022/05/11 10:50:19;;;;;;;4.15;1.85;;;;;;;16.03;56.63;101255.19;4986077;28;102526;-83
2022/05/11 10:53:03;;;;;;;2.38;1.50;;;;;;;16.03;56.56;101260.66;4979908;28;104418;-83
2022/05/11 10:55:43;;;;;;;4.82;2.00;;;;;;;16.03;56.76;101255.19;4978947;28;102663;-84
2022/05/11 10:58:23;;;;;;;3.15;1.95;;;;;;;16.02;56.75;101259.03;4994079;28;101907;-83
2022/05/11 11:01:00;;;;;;;1.75;1.35;;;;;;;16.03;56.43;101276.34;4989801;28;102579;-84
2022/05/11 11:04:18;;;;;;;2.97;1.50;;;;;;;16.03;56.50;101271.66;4986805;28;104017;-83
2022/05/11 11:07:11;;;;;;;4.95;1.70;;;;;;;16.03;56.49;101279.06;4942275;28;102116;-81
2022/05/11 11:09:46;;;;;;;3.00;1.60;;;;;;;16.03;56.47;101265.34;4923493;28;102538;-83
2022/05/11 11:12:32;;;;;;;2.25;1.55;;;;;;;16.02;56.73;101267.28;4982716;28;101998;-83
2022/05/11 11:15:05;;;;;;;2.80;1.55;;;;;;;16.02;56.79;101267.28;4992723;28;104031;-83
2022/05/11 11:17:34;;;;;;;3.22;1.83;;;;;;;16.01;56.74;101262.91;4977486;28;102381;-83
2022/05/11 11:20:03;;;;;;;1.83;1.50;;;;;;;16.01;56.30;101267.56;4990165;28;102159;-83
2022/05/11 11:23:00;;;;;;;3.25;1.58;;;;;;;16.01;56.69;101262.91;4991342;28;102928;-83
2022/05/11 11:25:41;;;;;;;2.05;1.70;;;;;;;16.00;56.61;101266.75;4987289;28;104037;-83
2022/05/11 11:28:11;;;;;;;2.22;1.58;;;;;;;16.00;56.55;101261.25;4992844;28;102327;-83
2022/05/11 11:30:42;;;;;;;2.72;1.77;;;;;;;16.00;56.42;101269.50;4992254;28;102167;-83
2022/05/11 11:33:23;;;;;;;2.28;1.30;;;;;;;15.99;56.01;101270.63;4985846;28;102690;-83
2022/05/11 11:35:54;;;;;;;1.70;1.40;;;;;;;15.99;56.03;101264.31;4991314;28;104132;-84
2022/05/11 11:38:29;;;;;;;2.60;1.70;;;;;;;15.98;56.29;101260.75;4979415;28;101989;-84
2022/05/11 11:41:14;;;;;;;2.67;1.83;;;;;;;15.98;56.30;101251.69;4991374;28;101965;-84
2022/05/11 11:43:53;;;;;;;4.68;1.70;;;;;;;15.98;56.13;101257.19;4994645;28;102552;-84
2022/05/11 11:46:40;;;;;;;3.58;1.50;;;;;;;15.97;56.27;101250.84;4985667;28;103680;-84
2022/05/11 11:49:10;;;;;;;2.35;1.60;;;;;;;15.98;56.58;101247.03;4990094;28;102009;-84
2022/05/11 11:51:56;;;;;;;4.22;1.60;;;;;;;15.97;56.12;101250.84;4990002;28;103152;-83
2022/05/11 11:54:30;;;;;;;4.75;1.60;;;;;;;15.97;56.46;101245.38;4989657;28;102963;-83
2022/05/11 11:57:00;;;;;;;2.40;1.52;;;;;;;15.96;56.14;101238.25;4993032;28;103915;-83
2022/05/11 11:59:40;;;;;;;1.65;1.55;;;;;;;15.96;56.11;101241.00;4991879;28;102451;-83
2022/05/11 12:02:22;;;;;;;1.88;1.63;;;;;;;15.96;55.94;101245.69;4984813;28;102139;-83